sensor_id;sensor_type;location;lat;lon;timestamp;P1;durP1;ratioP1;P2;durP2;ratioP2
39918;SDS011;25589;51.552;13.424;2023-06-22T00:00:52;8.93;;;7.18;;
39918;SDS011;25589;51.552;13.424;2023-06-22T00:03:18;9.75;;;7.82;;
39918;SDS011;25589;51.552;13.424;2023-06-22T00:05:45;8.48;;;7.47;;
39918;SDS011;25589;51.552;13.424;2023-06-22T00:08:11;9.80;;;7.40;;
39918;SDS011;25589;51.552;13.424;2023-06-22T00:10:36;11.20;;;7.95;;
39918;SDS011;25589;51.552;13.424;2023-06-22T00:13:02;10.93;;;8.27;;
39918;SDS011;25589;51.552;13.424;2023-06-22T00:15:28;10.35;;;7.80;;
39918;SDS011;25589;51.552;13.424;2023-06-22T00:17:54;9.60;;;8.25;;
39918;SDS011;25589;51.552;13.424;2023-06-22T00:20:19;10.70;;;7.97;;
39918;SDS011;25589;51.552;13.424;2023-06-22T00:22:45;10.40;;;7.82;;
39918;SDS011;25589;51.552;13.424;2023-06-22T00:25:10;9.32;;;8.02;;
39918;SDS011;25589;51.552;13.424;2023-06-22T00:27:36;8.95;;;7.60;;
39918;SDS011;25589;51.552;13.424;2023-06-22T00:30:04;10.38;;;7.20;;
39918;SDS011;25589;51.552;13.424;2023-06-22T00:32:30;9.50;;;7.78;;
39918;SDS011;25589;51.552;13.424;2023-06-22T00:34:55;10.90;;;8.82;;
39918;SDS011;25589;51.552;13.424;2023-06-22T00:37:22;9.00;;;8.10;;
39918;SDS011;25589;51.552;13.424;2023-06-22T00:39:52;10.73;;;7.90;;
39918;SDS011;25589;51.552;13.424;2023-06-22T00:42:18;10.55;;;8.10;;
39918;SDS011;25589;51.552;13.424;2023-06-22T00:44:45;9.40;;;7.97;;
39918;SDS011;25589;51.552;13.424;2023-06-22T00:47:11;9.70;;;8.07;;
39918;SDS011;25589;51.552;13.424;2023-06-22T00:49:41;10.25;;;8.73;;
39918;SDS011;25589;51.552;13.424;2023-06-22T00:52:07;9.82;;;8.45;;
39918;SDS011;25589;51.552;13.424;2023-06-22T00:54:40;9.30;;;8.35;;
39918;SDS011;25589;51.552;13.424;2023-06-22T00:57:13;11.48;;;8.68;;
39918;SDS011;25589;51.552;13.424;2023-06-22T00:59:44;10.25;;;8.55;;
39918;SDS011;25589;51.552;13.424;2023-06-22T01:02:10;8.95;;;7.88;;
39918;SDS011;25589;51.552;13.424;2023-06-22T01:04:37;11.10;;;8.25;;
39918;SDS011;25589;51.552;13.424;2023-06-22T01:10:21;10.60;;;8.63;;
39918;SDS011;25589;51.552;13.424;2023-06-22T01:12:55;11.68;;;9.50;;
39918;SDS011;25589;51.552;13.424;2023-06-22T01:17:51;11.05;;;9.75;;
39918;SDS011;25589;51.552;13.424;2023-06-22T01:20:18;11.85;;;10.40;;
39918;SDS011;25589;51.552;13.424;2023-06-22T01:25:54;12.52;;;10.30;;
39918;SDS011;25589;51.552;13.424;2023-06-22T01:28:43;12.38;;;9.52;;
39918;SDS011;25589;51.552;13.424;2023-06-22T01:31:12;11.48;;;9.18;;
39918;SDS011;25589;51.552;13.424;2023-06-22T01:33:41;11.02;;;8.95;;
39918;SDS011;25589;51.552;13.424;2023-06-22T01:36:08;12.68;;;10.23;;
39918;SDS011;25589;51.552;13.424;2023-06-22T01:38:35;10.85;;;9.13;;
39918;SDS011;25589;51.552;13.424;2023-06-22T01:41:02;11.93;;;9.77;;
39918;SDS011;25589;51.552;13.424;2023-06-22T01:43:28;11.32;;;9.18;;
39918;SDS011;25589;51.552;13.424;2023-06-22T01:45:55;10.27;;;8.68;;
39918;SDS011;25589;51.552;13.424;2023-06-22T01:48:22;10.27;;;9.18;;
39918;SDS011;25589;51.552;13.424;2023-06-22T01:50:48;10.35;;;8.77;;
39918;SDS011;25589;51.552;13.424;2023-06-22T01:53:15;10.77;;;9.45;;
39918;SDS011;25589;51.552;13.424;2023-06-22T01:55:41;11.07;;;8.80;;
39918;SDS011;25589;51.552;13.424;2023-06-22T01:58:07;10.90;;;9.13;;
39918;SDS011;25589;51.552;13.424;2023-06-22T02:00:33;10.70;;;8.93;;
39918;SDS011;25589;51.552;13.424;2023-06-22T02:03:05;11.57;;;9.70;;
39918;SDS011;25589;51.552;13.424;2023-06-22T02:05:43;14.30;;;9.48;;
39918;SDS011;25589;51.552;13.424;2023-06-22T02:08:30;11.15;;;9.07;;
39918;SDS011;25589;51.552;13.424;2023-06-22T02:11:02;11.07;;;9.10;;
39918;SDS011;25589;51.552;13.424;2023-06-22T02:13:28;10.38;;;9.00;;
39918;SDS011;25589;51.552;13.424;2023-06-22T02:15:55;10.90;;;9.02;;
39918;SDS011;25589;51.552;13.424;2023-06-22T02:18:21;11.70;;;9.90;;
39918;SDS011;25589;51.552;13.424;2023-06-22T02:20:46;10.27;;;9.18;;
39918;SDS011;25589;51.552;13.424;2023-06-22T02:23:12;10.10;;;8.90;;
39918;SDS011;25589;51.552;13.424;2023-06-22T02:25:37;11.50;;;9.30;;
39918;SDS011;25589;51.552;13.424;2023-06-22T02:28:04;11.95;;;9.02;;
39918;SDS011;25589;51.552;13.424;2023-06-22T02:30:31;9.70;;;8.70;;
39918;SDS011;25589;51.552;13.424;2023-06-22T02:32:58;10.90;;;9.63;;
39918;SDS011;25589;51.552;13.424;2023-06-22T02:35:30;11.32;;;9.05;;
39918;SDS011;25589;51.552;13.424;2023-06-22T02:38:00;12.35;;;9.70;;
39918;SDS011;25589;51.552;13.424;2023-06-22T02:40:27;12.20;;;10.15;;
39918;SDS011;25589;51.552;13.424;2023-06-22T02:42:55;11.80;;;10.30;;
39918;SDS011;25589;51.552;13.424;2023-06-22T02:45:23;12.93;;;11.10;;
39918;SDS011;25589;51.552;13.424;2023-06-22T02:47:49;11.32;;;9.73;;
39918;SDS011;25589;51.552;13.424;2023-06-22T02:50:16;11.73;;;9.10;;
39918;SDS011;25589;51.552;13.424;2023-06-22T02:52:42;10.95;;;9.20;;
39918;SDS011;25589;51.552;13.424;2023-06-22T02:55:08;10.93;;;9.75;;
39918;SDS011;25589;51.552;13.424;2023-06-22T02:57:34;12.00;;;9.80;;
39918;SDS011;25589;51.552;13.424;2023-06-22T03:00:01;13.63;;;10.23;;
39918;SDS011;25589;51.552;13.424;2023-06-22T03:02:28;13.35;;;9.88;;
39918;SDS011;25589;51.552;13.424;2023-06-22T03:04:54;10.82;;;9.65;;
39918;SDS011;25589;51.552;13.424;2023-06-22T03:07:20;12.50;;;10.75;;
39918;SDS011;25589;51.552;13.424;2023-06-22T03:09:47;12.15;;;10.00;;
39918;SDS011;25589;51.552;13.424;2023-06-22T03:12:13;11.82;;;10.15;;
39918;SDS011;25589;51.552;13.424;2023-06-22T03:14:48;12.63;;;10.77;;
39918;SDS011;25589;51.552;13.424;2023-06-22T03:17:14;11.20;;;10.05;;
39918;SDS011;25589;51.552;13.424;2023-06-22T03:19:40;11.65;;;10.48;;
39918;SDS011;25589;51.552;13.424;2023-06-22T03:22:05;11.55;;;10.35;;
39918;SDS011;25589;51.552;13.424;2023-06-22T03:24:32;12.70;;;11.18;;
39918;SDS011;25589;51.552;13.424;2023-06-22T03:26:59;16.77;;;10.88;;
39918;SDS011;25589;51.552;13.424;2023-06-22T03:29:25;11.57;;;10.40;;
39918;SDS011;25589;51.552;13.424;2023-06-22T03:31:51;12.98;;;10.85;;
39918;SDS011;25589;51.552;13.424;2023-06-22T03:34:17;13.40;;;10.85;;
39918;SDS011;25589;51.552;13.424;2023-06-22T03:36:42;13.30;;;10.80;;
39918;SDS011;25589;51.552;13.424;2023-06-22T03:39:10;13.98;;;10.85;;
39918;SDS011;25589;51.552;13.424;2023-06-22T03:41:36;14.23;;;10.60;;
39918;SDS011;25589;51.552;13.424;2023-06-22T03:44:01;13.43;;;11.13;;
39918;SDS011;25589;51.552;13.424;2023-06-22T03:46:27;12.70;;;11.30;;
39918;SDS011;25589;51.552;13.424;2023-06-22T03:48:53;15.00;;;12.65;;
39918;SDS011;25589;51.552;13.424;2023-06-22T03:51:18;12.80;;;11.23;;
39918;SDS011;25589;51.552;13.424;2023-06-22T03:53:44;13.45;;;12.05;;
39918;SDS011;25589;51.552;13.424;2023-06-22T03:56:09;15.13;;;12.85;;
39918;SDS011;25589;51.552;13.424;2023-06-22T03:58:35;12.90;;;11.50;;
39918;SDS011;25589;51.552;13.424;2023-06-22T04:01:01;12.57;;;11.02;;
39918;SDS011;25589;51.552;13.424;2023-06-22T04:03:27;14.30;;;12.13;;
39918;SDS011;25589;51.552;13.424;2023-06-22T04:05:53;13.10;;;11.40;;
39918;SDS011;25589;51.552;13.424;2023-06-22T04:08:18;14.38;;;11.35;;
39918;SDS011;25589;51.552;13.424;2023-06-22T04:10:44;13.57;;;11.80;;
39918;SDS011;25589;51.552;13.424;2023-06-22T04:13:10;13.88;;;11.68;;
39918;SDS011;25589;51.552;13.424;2023-06-22T04:15:35;16.55;;;11.63;;
39918;SDS011;25589;51.552;13.424;2023-06-22T04:18:01;13.88;;;11.88;;
39918;SDS011;25589;51.552;13.424;2023-06-22T04:20:26;17.00;;;11.85;;
39918;SDS011;25589;51.552;13.424;2023-06-22T04:22:52;12.75;;;11.45;;
39918;SDS011;25589;51.552;13.424;2023-06-22T04:25:19;13.63;;;11.27;;
39918;SDS011;25589;51.552;13.424;2023-06-22T04:27:45;13.43;;;11.45;;
39918;SDS011;25589;51.552;13.424;2023-06-22T04:30:11;13.93;;;12.13;;
39918;SDS011;25589;51.552;13.424;2023-06-22T04:32:37;13.15;;;10.88;;
39918;SDS011;25589;51.552;13.424;2023-06-22T04:35:03;14.10;;;11.90;;
39918;SDS011;25589;51.552;13.424;2023-06-22T04:37:32;15.05;;;12.05;;
39918;SDS011;25589;51.552;13.424;2023-06-22T04:39:58;14.07;;;11.07;;
39918;SDS011;25589;51.552;13.424;2023-06-22T04:42:25;16.33;;;12.43;;
39918;SDS011;25589;51.552;13.424;2023-06-22T04:44:51;14.43;;;12.18;;
39918;SDS011;25589;51.552;13.424;2023-06-22T04:47:17;13.00;;;11.52;;
39918;SDS011;25589;51.552;13.424;2023-06-22T04:49:43;14.13;;;12.13;;
39918;SDS011;25589;51.552;13.424;2023-06-22T04:52:09;13.85;;;12.05;;
39918;SDS011;25589;51.552;13.424;2023-06-22T04:54:37;12.48;;;11.18;;
39918;SDS011;25589;51.552;13.424;2023-06-22T04:57:04;13.65;;;11.73;;
39918;SDS011;25589;51.552;13.424;2023-06-22T04:59:35;12.52;;;11.20;;
39918;SDS011;25589;51.552;13.424;2023-06-22T05:02:01;19.48;;;11.00;;
39918;SDS011;25589;51.552;13.424;2023-06-22T05:04:28;13.95;;;12.10;;
39918;SDS011;25589;51.552;13.424;2023-06-22T05:06:58;12.38;;;11.18;;
39918;SDS011;25589;51.552;13.424;2023-06-22T05:09:25;15.02;;;12.18;;
39918;SDS011;25589;51.552;13.424;2023-06-22T05:11:50;14.95;;;11.55;;
39918;SDS011;25589;51.552;13.424;2023-06-22T05:14:16;12.85;;;11.52;;
39918;SDS011;25589;51.552;13.424;2023-06-22T05:16:43;13.25;;;11.90;;
39918;SDS011;25589;51.552;13.424;2023-06-22T05:19:09;13.23;;;11.73;;
39918;SDS011;25589;51.552;13.424;2023-06-22T05:21:35;13.38;;;11.98;;
39918;SDS011;25589;51.552;13.424;2023-06-22T05:24:01;14.20;;;12.75;;
39918;SDS011;25589;51.552;13.424;2023-06-22T05:26:28;13.27;;;11.68;;
39918;SDS011;25589;51.552;13.424;2023-06-22T05:28:55;14.30;;;11.38;;
39918;SDS011;25589;51.552;13.424;2023-06-22T05:31:20;14.60;;;10.85;;
39918;SDS011;25589;51.552;13.424;2023-06-22T05:33:46;16.60;;;11.93;;
39918;SDS011;25589;51.552;13.424;2023-06-22T05:36:13;13.25;;;11.55;;
39918;SDS011;25589;51.552;13.424;2023-06-22T05:38:40;15.27;;;12.02;;
39918;SDS011;25589;51.552;13.424;2023-06-22T05:41:07;13.20;;;11.50;;
39918;SDS011;25589;51.552;13.424;2023-06-22T05:43:33;12.38;;;11.07;;
39918;SDS011;25589;51.552;13.424;2023-06-22T05:46:02;15.98;;;12.52;;
39918;SDS011;25589;51.552;13.424;2023-06-22T05:48:28;13.55;;;12.15;;
39918;SDS011;25589;51.552;13.424;2023-06-22T05:50:54;13.88;;;12.48;;
39918;SDS011;25589;51.552;13.424;2023-06-22T05:53:20;16.40;;;12.52;;
39918;SDS011;25589;51.552;13.424;2023-06-22T05:55:45;13.93;;;12.52;;
39918;SDS011;25589;51.552;13.424;2023-06-22T05:58:11;13.82;;;12.43;;
39918;SDS011;25589;51.552;13.424;2023-06-22T06:00:38;13.93;;;12.35;;
39918;SDS011;25589;51.552;13.424;2023-06-22T06:03:04;14.00;;;12.13;;
39918;SDS011;25589;51.552;13.424;2023-06-22T06:05:30;12.82;;;11.50;;
39918;SDS011;25589;51.552;13.424;2023-06-22T06:07:57;15.15;;;13.38;;
39918;SDS011;25589;51.552;13.424;2023-06-22T06:10:23;14.40;;;12.77;;
39918;SDS011;25589;51.552;13.424;2023-06-22T06:12:48;15.98;;;13.75;;
39918;SDS011;25589;51.552;13.424;2023-06-22T06:15:14;16.33;;;13.63;;
39918;SDS011;25589;51.552;13.424;2023-06-22T06:17:46;16.90;;;12.75;;
39918;SDS011;25589;51.552;13.424;2023-06-22T06:20:13;14.00;;;12.50;;
39918;SDS011;25589;51.552;13.424;2023-06-22T06:22:39;15.88;;;13.68;;
39918;SDS011;25589;51.552;13.424;2023-06-22T06:25:04;13.88;;;12.48;;
39918;SDS011;25589;51.552;13.424;2023-06-22T06:27:30;15.00;;;13.02;;
39918;SDS011;25589;51.552;13.424;2023-06-22T06:29:56;13.13;;;11.70;;
39918;SDS011;25589;51.552;13.424;2023-06-22T06:32:22;13.32;;;11.93;;
39918;SDS011;25589;51.552;13.424;2023-06-22T06:34:47;15.63;;;13.73;;
39918;SDS011;25589;51.552;13.424;2023-06-22T06:37:13;14.98;;;13.32;;
39918;SDS011;25589;51.552;13.424;2023-06-22T06:39:38;14.10;;;12.60;;
39918;SDS011;25589;51.552;13.424;2023-06-22T06:42:04;15.25;;;12.57;;
39918;SDS011;25589;51.552;13.424;2023-06-22T06:44:30;13.13;;;11.80;;
39918;SDS011;25589;51.552;13.424;2023-06-22T06:46:55;15.50;;;12.18;;
39918;SDS011;25589;51.552;13.424;2023-06-22T06:49:21;13.55;;;12.13;;
39918;SDS011;25589;51.552;13.424;2023-06-22T06:51:47;13.80;;;12.05;;
39918;SDS011;25589;51.552;13.424;2023-06-22T06:54:12;15.63;;;12.27;;
39918;SDS011;25589;51.552;13.424;2023-06-22T06:56:38;16.42;;;12.05;;
39918;SDS011;25589;51.552;13.424;2023-06-22T06:59:03;12.38;;;11.10;;
39918;SDS011;25589;51.552;13.424;2023-06-22T07:01:29;12.70;;;11.30;;
39918;SDS011;25589;51.552;13.424;2023-06-22T07:03:58;15.00;;;11.82;;
39918;SDS011;25589;51.552;13.424;2023-06-22T07:06:24;12.07;;;10.38;;
39918;SDS011;25589;51.552;13.424;2023-06-22T07:08:54;13.05;;;11.07;;
39918;SDS011;25589;51.552;13.424;2023-06-22T07:11:20;13.23;;;10.30;;
39918;SDS011;25589;51.552;13.424;2023-06-22T07:13:45;11.45;;;10.25;;
39918;SDS011;25589;51.552;13.424;2023-06-22T07:16:11;10.57;;;9.48;;
39918;SDS011;25589;51.552;13.424;2023-06-22T07:18:37;12.43;;;9.82;;
39918;SDS011;25589;51.552;13.424;2023-06-22T07:21:05;11.48;;;9.93;;
39918;SDS011;25589;51.552;13.424;2023-06-22T07:23:31;10.68;;;9.55;;
39918;SDS011;25589;51.552;13.424;2023-06-22T07:25:57;10.70;;;9.60;;
39918;SDS011;25589;51.552;13.424;2023-06-22T07:28:26;11.98;;;9.85;;
39918;SDS011;25589;51.552;13.424;2023-06-22T07:30:52;11.80;;;9.60;;
39918;SDS011;25589;51.552;13.424;2023-06-22T07:33:18;10.65;;;9.38;;
39918;SDS011;25589;51.552;13.424;2023-06-22T07:35:44;9.52;;;8.40;;
39918;SDS011;25589;51.552;13.424;2023-06-22T07:38:12;10.93;;;9.40;;
39918;SDS011;25589;51.552;13.424;2023-06-22T07:40:37;10.05;;;9.05;;
39918;SDS011;25589;51.552;13.424;2023-06-22T07:43:03;12.95;;;9.02;;
39918;SDS011;25589;51.552;13.424;2023-06-22T07:45:29;9.52;;;8.63;;
39918;SDS011;25589;51.552;13.424;2023-06-22T07:47:54;11.13;;;9.90;;
39918;SDS011;25589;51.552;13.424;2023-06-22T07:50:20;10.05;;;9.02;;
39918;SDS011;25589;51.552;13.424;2023-06-22T07:52:45;12.38;;;10.20;;
39918;SDS011;25589;51.552;13.424;2023-06-22T07:55:12;11.40;;;9.25;;
39918;SDS011;25589;51.552;13.424;2023-06-22T07:57:38;13.57;;;10.43;;
39918;SDS011;25589;51.552;13.424;2023-06-22T08:00:04;10.57;;;9.38;;
39918;SDS011;25589;51.552;13.424;2023-06-22T08:02:42;11.75;;;9.80;;
39918;SDS011;25589;51.552;13.424;2023-06-22T08:05:09;12.57;;;9.60;;
39918;SDS011;25589;51.552;13.424;2023-06-22T08:07:35;11.45;;;9.07;;
39918;SDS011;25589;51.552;13.424;2023-06-22T08:10:02;12.43;;;9.35;;
39918;SDS011;25589;51.552;13.424;2023-06-22T08:12:29;10.68;;;9.18;;
39918;SDS011;25589;51.552;13.424;2023-06-22T08:14:54;12.85;;;9.50;;
39918;SDS011;25589;51.552;13.424;2023-06-22T08:17:21;12.25;;;10.32;;
39918;SDS011;25589;51.552;13.424;2023-06-22T08:19:47;10.90;;;9.80;;
39918;SDS011;25589;51.552;13.424;2023-06-22T08:22:13;10.23;;;9.15;;
39918;SDS011;25589;51.552;13.424;2023-06-22T08:24:39;12.27;;;10.27;;
39918;SDS011;25589;51.552;13.424;2023-06-22T08:27:06;12.75;;;9.88;;
39918;SDS011;25589;51.552;13.424;2023-06-22T08:29:33;12.40;;;9.45;;
39918;SDS011;25589;51.552;13.424;2023-06-22T08:31:59;11.40;;;9.13;;
39918;SDS011;25589;51.552;13.424;2023-06-22T08:34:24;11.45;;;9.90;;
39918;SDS011;25589;51.552;13.424;2023-06-22T08:36:52;13.57;;;12.18;;
39918;SDS011;25589;51.552;13.424;2023-06-22T08:39:21;14.35;;;10.60;;
39918;SDS011;25589;51.552;13.424;2023-06-22T08:41:47;12.02;;;10.70;;
39918;SDS011;25589;51.552;13.424;2023-06-22T08:44:13;12.95;;;10.88;;
39918;SDS011;25589;51.552;13.424;2023-06-22T08:46:39;13.35;;;10.45;;
39918;SDS011;25589;51.552;13.424;2023-06-22T08:49:05;11.93;;;10.68;;
39918;SDS011;25589;51.552;13.424;2023-06-22T08:51:31;11.02;;;9.20;;
39918;SDS011;25589;51.552;13.424;2023-06-22T08:53:57;10.82;;;9.73;;
39918;SDS011;25589;51.552;13.424;2023-06-22T08:56:22;11.13;;;9.60;;
39918;SDS011;25589;51.552;13.424;2023-06-22T08:58:48;11.27;;;9.90;;
39918;SDS011;25589;51.552;13.424;2023-06-22T09:01:14;10.68;;;9.65;;
39918;SDS011;25589;51.552;13.424;2023-06-22T09:03:40;8.45;;;7.65;;
39918;SDS011;25589;51.552;13.424;2023-06-22T09:06:06;10.05;;;8.20;;
39918;SDS011;25589;51.552;13.424;2023-06-22T09:08:34;9.25;;;8.20;;
39918;SDS011;25589;51.552;13.424;2023-06-22T09:11:00;9.95;;;8.05;;
39918;SDS011;25589;51.552;13.424;2023-06-22T09:13:25;9.80;;;8.02;;
39918;SDS011;25589;51.552;13.424;2023-06-22T09:15:51;10.38;;;8.98;;
39918;SDS011;25589;51.552;13.424;2023-06-22T09:18:17;10.20;;;8.63;;
39918;SDS011;25589;51.552;13.424;2023-06-22T09:20:43;10.15;;;9.15;;
39918;SDS011;25589;51.552;13.424;2023-06-22T09:23:09;11.20;;;9.60;;
39918;SDS011;25589;51.552;13.424;2023-06-22T09:25:35;8.63;;;7.82;;
39918;SDS011;25589;51.552;13.424;2023-06-22T09:28:00;9.45;;;8.40;;
39918;SDS011;25589;51.552;13.424;2023-06-22T09:30:26;9.85;;;8.65;;
39918;SDS011;25589;51.552;13.424;2023-06-22T09:32:51;9.88;;;7.32;;
39918;SDS011;25589;51.552;13.424;2023-06-22T09:35:17;9.20;;;7.85;;
39918;SDS011;25589;51.552;13.424;2023-06-22T09:37:43;7.80;;;7.00;;
39918;SDS011;25589;51.552;13.424;2023-06-22T09:40:08;9.10;;;7.75;;
39918;SDS011;25589;51.552;13.424;2023-06-22T09:42:36;9.50;;;8.32;;
39918;SDS011;25589;51.552;13.424;2023-06-22T09:45:01;10.30;;;9.30;;
39918;SDS011;25589;51.552;13.424;2023-06-22T09:47:29;9.77;;;8.77;;
39918;SDS011;25589;51.552;13.424;2023-06-22T09:49:54;11.18;;;8.65;;
39918;SDS011;25589;51.552;13.424;2023-06-22T09:52:20;10.70;;;9.45;;
39918;SDS011;25589;51.552;13.424;2023-06-22T09:54:46;10.70;;;8.77;;
39918;SDS011;25589;51.552;13.424;2023-06-22T09:57:12;13.13;;;9.32;;
39918;SDS011;25589;51.552;13.424;2023-06-22T09:59:38;10.07;;;8.80;;
39918;SDS011;25589;51.552;13.424;2023-06-22T10:02:05;11.57;;;8.93;;
39918;SDS011;25589;51.552;13.424;2023-06-22T10:04:32;10.20;;;8.77;;
39918;SDS011;25589;51.552;13.424;2023-06-22T10:06:58;13.20;;;9.05;;
39918;SDS011;25589;51.552;13.424;2023-06-22T10:09:23;8.73;;;7.93;;
39918;SDS011;25589;51.552;13.424;2023-06-22T10:11:49;9.80;;;8.75;;
39918;SDS011;25589;51.552;13.424;2023-06-22T10:14:14;9.63;;;8.65;;
39918;SDS011;25589;51.552;13.424;2023-06-22T10:16:40;8.63;;;7.72;;
39918;SDS011;25589;51.552;13.424;2023-06-22T10:19:06;11.02;;;7.97;;
39918;SDS011;25589;51.552;13.424;2023-06-22T10:21:32;9.48;;;8.55;;
39918;SDS011;25589;51.552;13.424;2023-06-22T10:23:58;10.65;;;9.07;;
39918;SDS011;25589;51.552;13.424;2023-06-22T10:26:26;11.55;;;8.90;;
39918;SDS011;25589;51.552;13.424;2023-06-22T10:28:54;9.55;;;8.65;;
39918;SDS011;25589;51.552;13.424;2023-06-22T10:31:19;10.15;;;8.60;;
39918;SDS011;25589;51.552;13.424;2023-06-22T10:33:45;11.30;;;8.52;;
39918;SDS011;25589;51.552;13.424;2023-06-22T10:36:11;8.85;;;7.97;;
39918;SDS011;25589;51.552;13.424;2023-06-22T10:38:36;9.40;;;8.27;;
39918;SDS011;25589;51.552;13.424;2023-06-22T10:41:02;10.15;;;8.73;;
39918;SDS011;25589;51.552;13.424;2023-06-22T10:43:27;9.63;;;8.15;;
39918;SDS011;25589;51.552;13.424;2023-06-22T10:45:53;9.27;;;7.95;;
39918;SDS011;25589;51.552;13.424;2023-06-22T10:48:18;9.00;;;8.20;;
39918;SDS011;25589;51.552;13.424;2023-06-22T10:50:44;8.18;;;7.38;;
39918;SDS011;25589;51.552;13.424;2023-06-22T10:53:09;8.90;;;8.02;;
39918;SDS011;25589;51.552;13.424;2023-06-22T10:55:35;13.30;;;9.00;;
39918;SDS011;25589;51.552;13.424;2023-06-22T10:58:01;11.50;;;8.50;;
39918;SDS011;25589;51.552;13.424;2023-06-22T11:00:26;9.57;;;8.52;;
39918;SDS011;25589;51.552;13.424;2023-06-22T11:02:52;10.05;;;9.05;;
39918;SDS011;25589;51.552;13.424;2023-06-22T11:05:17;10.70;;;9.60;;
39918;SDS011;25589;51.552;13.424;2023-06-22T11:07:43;10.30;;;8.43;;
39918;SDS011;25589;51.552;13.424;2023-06-22T11:10:09;8.63;;;7.78;;
39918;SDS011;25589;51.552;13.424;2023-06-22T11:12:36;10.02;;;8.40;;
39918;SDS011;25589;51.552;13.424;2023-06-22T11:15:01;11.18;;;9.32;;
39918;SDS011;25589;51.552;13.424;2023-06-22T11:17:27;11.40;;;8.75;;
39918;SDS011;25589;51.552;13.424;2023-06-22T11:19:52;12.30;;;9.27;;
39918;SDS011;25589;51.552;13.424;2023-06-22T11:22:18;9.05;;;8.15;;
39918;SDS011;25589;51.552;13.424;2023-06-22T11:24:43;8.13;;;7.43;;
39918;SDS011;25589;51.552;13.424;2023-06-22T11:27:09;9.57;;;7.22;;
39918;SDS011;25589;51.552;13.424;2023-06-22T11:29:34;8.05;;;7.25;;
39918;SDS011;25589;51.552;13.424;2023-06-22T11:32:01;8.93;;;8.02;;
39918;SDS011;25589;51.552;13.424;2023-06-22T11:34:27;10.68;;;8.05;;
39918;SDS011;25589;51.552;13.424;2023-06-22T11:36:53;9.40;;;7.45;;
39918;SDS011;25589;51.552;13.424;2023-06-22T11:39:18;9.15;;;8.35;;
39918;SDS011;25589;51.552;13.424;2023-06-22T11:41:44;9.50;;;8.60;;
39918;SDS011;25589;51.552;13.424;2023-06-22T11:44:09;9.40;;;8.27;;
39918;SDS011;25589;51.552;13.424;2023-06-22T11:46:35;10.10;;;8.30;;
39918;SDS011;25589;51.552;13.424;2023-06-22T11:49:01;10.52;;;8.35;;
39918;SDS011;25589;51.552;13.424;2023-06-22T11:51:27;8.25;;;7.40;;
39918;SDS011;25589;51.552;13.424;2023-06-22T11:53:53;9.23;;;7.15;;
39918;SDS011;25589;51.552;13.424;2023-06-22T11:56:19;7.97;;;7.15;;
39918;SDS011;25589;51.552;13.424;2023-06-22T11:58:44;10.30;;;6.72;;
39918;SDS011;25589;51.552;13.424;2023-06-22T12:01:10;8.57;;;7.28;;
39918;SDS011;25589;51.552;13.424;2023-06-22T12:03:35;10.05;;;7.40;;
39918;SDS011;25589;51.552;13.424;2023-06-22T12:06:01;7.03;;;6.43;;
39918;SDS011;25589;51.552;13.424;2023-06-22T12:08:26;8.43;;;6.95;;
39918;SDS011;25589;51.552;13.424;2023-06-22T12:10:52;8.25;;;7.10;;
39918;SDS011;25589;51.552;13.424;2023-06-22T12:13:18;8.40;;;7.32;;
39918;SDS011;25589;51.552;13.424;2023-06-22T12:15:44;8.32;;;7.53;;
39918;SDS011;25589;51.552;13.424;2023-06-22T12:18:10;7.70;;;6.90;;
39918;SDS011;25589;51.552;13.424;2023-06-22T12:20:36;7.65;;;6.95;;
39918;SDS011;25589;51.552;13.424;2023-06-22T12:23:02;8.60;;;7.22;;
39918;SDS011;25589;51.552;13.424;2023-06-22T12:25:27;8.57;;;7.25;;
39918;SDS011;25589;51.552;13.424;2023-06-22T12:27:53;7.43;;;6.40;;
39918;SDS011;25589;51.552;13.424;2023-06-22T12:30:19;8.23;;;7.22;;
39918;SDS011;25589;51.552;13.424;2023-06-22T12:32:44;8.10;;;7.10;;
39918;SDS011;25589;51.552;13.424;2023-06-22T12:35:10;8.02;;;7.20;;
39918;SDS011;25589;51.552;13.424;2023-06-22T12:37:39;7.60;;;6.93;;
39918;SDS011;25589;51.552;13.424;2023-06-22T12:40:06;8.02;;;7.22;;
39918;SDS011;25589;51.552;13.424;2023-06-22T12:42:32;7.60;;;6.90;;
39918;SDS011;25589;51.552;13.424;2023-06-22T12:44:58;7.60;;;6.90;;
39918;SDS011;25589;51.552;13.424;2023-06-22T12:47:23;7.32;;;6.63;;
39918;SDS011;25589;51.552;13.424;2023-06-22T12:49:49;8.05;;;7.30;;
39918;SDS011;25589;51.552;13.424;2023-06-22T12:52:14;7.32;;;6.65;;
39918;SDS011;25589;51.552;13.424;2023-06-22T12:54:40;8.07;;;7.35;;
39918;SDS011;25589;51.552;13.424;2023-06-22T12:57:06;8.00;;;7.20;;
39918;SDS011;25589;51.552;13.424;2023-06-22T12:59:31;8.10;;;7.32;;
39918;SDS011;25589;51.552;13.424;2023-06-22T13:01:57;7.32;;;6.35;;
39918;SDS011;25589;51.552;13.424;2023-06-22T13:04:22;6.50;;;5.90;;
39918;SDS011;25589;51.552;13.424;2023-06-22T13:06:48;7.90;;;6.78;;
39918;SDS011;25589;51.552;13.424;2023-06-22T13:09:14;8.85;;;7.05;;
39918;SDS011;25589;51.552;13.424;2023-06-22T13:11:40;11.38;;;7.07;;
39918;SDS011;25589;51.552;13.424;2023-06-22T13:14:06;7.95;;;7.15;;
39918;SDS011;25589;51.552;13.424;2023-06-22T13:16:32;7.75;;;7.05;;
39918;SDS011;25589;51.552;13.424;2023-06-22T13:18:57;8.15;;;7.35;;
39918;SDS011;25589;51.552;13.424;2023-06-22T13:21:23;8.27;;;7.47;;
39918;SDS011;25589;51.552;13.424;2023-06-22T13:23:49;9.68;;;8.48;;
39918;SDS011;25589;51.552;13.424;2023-06-22T13:26:14;7.35;;;6.68;;
39918;SDS011;25589;51.552;13.424;2023-06-22T13:28:40;8.20;;;7.03;;
39918;SDS011;25589;51.552;13.424;2023-06-22T13:31:05;7.55;;;6.85;;
39918;SDS011;25589;51.552;13.424;2023-06-22T13:33:31;9.00;;;7.07;;
39918;SDS011;25589;51.552;13.424;2023-06-22T13:35:56;9.35;;;7.80;;
39918;SDS011;25589;51.552;13.424;2023-06-22T13:38:22;8.93;;;7.50;;
39918;SDS011;25589;51.552;13.424;2023-06-22T13:40:48;8.18;;;7.38;;
39918;SDS011;25589;51.552;13.424;2023-06-22T13:43:14;8.88;;;7.57;;
39918;SDS011;25589;51.552;13.424;2023-06-22T13:45:40;7.75;;;7.00;;
39918;SDS011;25589;51.552;13.424;2023-06-22T13:48:06;8.38;;;6.65;;
39918;SDS011;25589;51.552;13.424;2023-06-22T13:50:32;8.25;;;7.53;;
39918;SDS011;25589;51.552;13.424;2023-06-22T13:52:58;7.95;;;7.15;;
39918;SDS011;25589;51.552;13.424;2023-06-22T13:55:24;8.15;;;7.32;;
39918;SDS011;25589;51.552;13.424;2023-06-22T13:57:50;8.48;;;7.57;;
39918;SDS011;25589;51.552;13.424;2023-06-22T14:00:16;9.93;;;6.93;;
39918;SDS011;25589;51.552;13.424;2023-06-22T14:02:42;8.40;;;6.82;;
39918;SDS011;25589;51.552;13.424;2023-06-22T14:05:08;7.35;;;6.57;;
39918;SDS011;25589;51.552;13.424;2023-06-22T14:07:34;6.93;;;6.32;;
39918;SDS011;25589;51.552;13.424;2023-06-22T14:10:00;8.30;;;7.30;;
39918;SDS011;25589;51.552;13.424;2023-06-22T14:12:26;7.78;;;6.47;;
39918;SDS011;25589;51.552;13.424;2023-06-22T14:14:52;7.38;;;6.60;;
39918;SDS011;25589;51.552;13.424;2023-06-22T14:17:17;7.60;;;6.90;;
39918;SDS011;25589;51.552;13.424;2023-06-22T14:19:48;7.43;;;6.72;;
39918;SDS011;25589;51.552;13.424;2023-06-22T14:22:14;7.88;;;6.80;;
39918;SDS011;25589;51.552;13.424;2023-06-22T14:24:40;8.23;;;6.55;;